Cotes De La Manche — FQBE — position and weather

sailwx.info

Track history (hours):
 
Tides and Currents Weather Stations Pressure Air Temp Water Temp Dewpoint Dewpoint Depression Visibility Wind Speed Wind Dir Waves Ship Positions

Cotes De La Manche

Last reported at 2016-Dec-07 06:13 UTC. Time now 2016-Dec-11 08:11 UTC.
Position N 49°39' W 001°37'.

Length 25 m; draft 3.7 m.

Type: Tow > 200 m length. MMSI: 227091000.

Date/timePositionNaut miles runAvg speedWind from/ knotsBaromVisibWave heightAir tempDewpointWater temp
2016-Dec-07 06:13N 49°39' W 001°37'0 0.0
2016-Dec-07 05:33N 49°39' W 001°37'0 0.0
2016-Dec-07 04:33N 49°39' W 001°37'0 0.0
2016-Dec-07 03:33N 49°39' W 001°37'0 0.0
2016-Dec-07 02:33N 49°39' W 001°37'0 0.0
2016-Dec-07 01:33N 49°39' W 001°37'0 0.0
2016-Dec-07 00:33N 49°39' W 001°37'0 0.0
2016-Dec-06 23:33N 49°39' W 001°37'0 0.0
2016-Dec-06 22:33N 49°39' W 001°37'0 0.0
2016-Dec-06 21:33N 49°39' W 001°37'0 0.0
2016-Dec-06 20:33N 49°39' W 001°37'0 0.0
2016-Dec-06 18:33N 49°39' W 001°37'0 0.0
2016-Dec-06 17:33N 49°39' W 001°37'0 0.0
2016-Dec-06 16:33N 49°39' W 001°37'6 6.5
2016-Dec-06 15:34N 49°44' W 001°42'4 4.3
2016-Dec-06 14:33N 49°44' W 001°36'5 5.1
2016-Dec-06 13:34N 49°39' W 001°37'0 0.0
2016-Dec-06 12:33N 49°39' W 001°37'8 8.5
2016-Dec-06 11:33N 49°44' W 001°48'3 0.9
2016-Dec-06 08:33N 49°45' W 001°52'9 9.0
2016-Dec-06 07:33N 49°41' W 001°39'2 2.3
2016-Dec-06 06:33N 49°39' W 001°37'0 0.0
2016-Dec-06 05:33N 49°39' W 001°37'0 0.0
2016-Dec-06 04:33N 49°39' W 001°37'0 0.0
2016-Dec-06 03:33N 49°39' W 001°37'0 0.0
2016-Dec-06 02:33N 49°39' W 001°37'0 0.0
2016-Dec-06 01:34N 49°39' W 001°37'0 0.0
2016-Dec-06 00:33N 49°39' W 001°37'0 0.0
2016-Dec-05 23:33N 49°39' W 001°37'0 0.0
2016-Dec-05 22:33N 49°39' W 001°37'0 0.0
2016-Dec-05 21:33N 49°39' W 001°37'0 0.0
2016-Dec-05 20:33N 49°39' W 001°37'0 0.0
2016-Dec-05 19:33N 49°39' W 001°37'0 0.0
2016-Dec-05 18:34N 49°39' W 001°37'0 0.0
2016-Dec-05 17:33N 49°39' W 001°37'1 1.4
2016-Dec-05 16:33N 49°40' W 001°37'1 0.7
2016-Dec-05 15:33N 49°40' W 001°36'0 0.2
2016-Dec-05 14:33N 49°40' W 001°37'0 0.0
2016-Dec-05 13:33N 49°40' W 001°37'0 0.4
2016-Dec-05 12:33N 49°40' W 001°37'0 0.0
2016-Dec-05 11:33N 49°40' W 001°37'0 0.0
2016-Dec-05 10:33N 49°40' W 001°37'0 0.0
2016-Dec-05 09:33N 49°40' W 001°37'0 0.0
2016-Dec-05 08:33N 49°40' W 001°37'1 1.3
2016-Dec-05 07:33N 49°39' W 001°37'0 0.0
2016-Dec-05 06:33N 49°39' W 001°37'0 0.0
2016-Dec-05 05:34N 49°39' W 001°37'0 0.0
2016-Dec-05 04:33N 49°39' W 001°37'0 0.0
2016-Dec-05 03:33N 49°39' W 001°37'0 0.0
2016-Dec-05 02:33N 49°39' W 001°37'0 0.0
2016-Dec-05 01:33N 49°39' W 001°37'0 0.0
2016-Dec-05 00:33N 49°39' W 001°37'0 0.0
2016-Dec-04 23:33N 49°39' W 001°37'0 0.0
2016-Dec-04 22:33N 49°39' W 001°37'0 0.0
2016-Dec-04 21:33N 49°39' W 001°37'0 0.0
2016-Dec-04 20:33N 49°39' W 001°37'0 0.0
2016-Dec-04 19:33N 49°39' W 001°37'0 0.0
2016-Dec-04 18:33N 49°39' W 001°37'0 0.0
2016-Dec-04 17:33N 49°39' W 001°37'1 1.3
2016-Dec-04 16:33N 49°40' W 001°36'2 1.7
2016-Dec-04 15:33N 49°40' W 001°38'1 0.8
2016-Dec-04 14:33N 49°40' W 001°37'1 0.5
2016-Dec-04 13:33N 49°40' W 001°36'0 0.1
2016-Dec-04 12:33N 49°40' W 001°36'0 0.0
2016-Dec-04 11:33N 49°40' W 001°36'0 0.0
2016-Dec-04 10:34N 49°40' W 001°36'1 1.2
2016-Dec-04 09:33N 49°39' W 001°37'1 0.9
2016-Dec-04 08:33N 49°38' W 001°37'0 0.0
2016-Dec-04 07:33N 49°38' W 001°37'0 0.0
2016-Dec-04 06:33N 49°38' W 001°37'0 0.0
2016-Dec-04 05:33N 49°38' W 001°37'0 0.0
2016-Dec-04 04:33N 49°38' W 001°37'0 0.0
2016-Dec-04 03:33N 49°38' W 001°37'0 0.0
2016-Dec-04 02:33N 49°38' W 001°37'0 0.0
2016-Dec-04 01:33N 49°38' W 001°37'0 0.0
2016-Dec-04 00:33N 49°38' W 001°37'0 0.0
2016-Dec-03 23:33N 49°38' W 001°37'0 0.0
2016-Dec-03 22:33N 49°38' W 001°37'0 0.0
2016-Dec-03 21:33N 49°38' W 001°37'0 0.0
2016-Dec-03 20:33N 49°38' W 001°37'0 0.0
2016-Dec-03 19:33N 49°38' W 001°37'0 0.0
2016-Dec-03 18:33N 49°38' W 001°37'0 0.0
2016-Dec-03 17:33N 49°38' W 001°37'0 0.0
2016-Dec-03 16:33N 49°38' W 001°37'0 0.0
2016-Dec-03 15:33N 49°38' W 001°37'0 0.0
2016-Dec-03 14:33N 49°38' W 001°37'0 0.0
2016-Dec-03 13:33N 49°38' W 001°37'0 0.0
2016-Dec-03 12:33N 49°38' W 001°37'0 0.0
2016-Dec-03 11:33N 49°38' W 001°37'0 0.0
2016-Dec-03 10:33N 49°38' W 001°37'0 0.0
2016-Dec-03 09:33N 49°38' W 001°37'1 0.7
2016-Dec-03 08:34N 49°39' W 001°37'0 0.1
2016-Dec-03 07:33N 49°39' W 001°37'0 0.0
2016-Dec-03 06:33N 49°39' W 001°37'7 7.5
2016-Dec-03 05:33N 49°43' W 001°46'127 7.8
2016-Dec-02 13:20N 48°41' W 004°35'7 9.4
2016-Dec-02 12:34N 48°38' W 004°45'9 9.5
2016-Dec-02 11:34N 48°29' W 004°50'9 9.4
2016-Dec-02 10:34N 48°20' W 004°48'10 9.5
2016-Dec-02 09:34N 48°10' W 004°45'9 8.6
2016-Dec-02 08:34N 48°02' W 004°46'19 9.4
2016-Dec-02 06:34N 47°48' W 004°27'11 9.5
2016-Dec-02 05:26N 47°41' W 004°14'910.2
2016-Dec-02 04:33N 47°38' W 004°02'1010.2
2016-Dec-02 03:33N 47°34' W 003°48'1010.1
2016-Dec-02 02:33N 47°31' W 003°34'1010.1
2016-Dec-02 01:34N 47°27' W 003°20'1010.0
2016-Dec-02 00:34N 47°23' W 003°07'1110.6
2016-Dec-01 23:33N 47°15' W 002°56'1110.6
2016-Dec-01 22:33N 47°07' W 002°46'1010.3
2016-Dec-01 21:33N 46°59' W 002°36'1010.3
2016-Dec-01 20:34N 46°51' W 002°26'1010.5
2016-Dec-01 19:33N 46°44' W 002°15'1010.2
2016-Dec-01 18:33N 46°36' W 002°05'1010.2
2016-Dec-01 17:33N 46°28' W 001°56'1010.1
2016-Dec-01 16:33N 46°21' W 001°47'20 9.5
2016-Dec-01 14:26N 46°08' W 001°24'7 7.8
2016-Dec-01 13:34N 46°09' W 001°15'1 0.9
2016-Dec-01 12:34N 46°09' W 001°13'0 0.0
2016-Dec-01 11:34N 46°09' W 001°13'0 0.0
2016-Dec-01 10:34N 46°09' W 001°13'0 0.0
2016-Dec-01 09:33N 46°09' W 001°13'0 0.0
2016-Dec-01 08:32N 46°09' W 001°13'0 0.0
2016-Dec-01 07:34N 46°09' W 001°13'0 0.0
2016-Dec-01 06:34N 46°09' W 001°13'0 0.0
2016-Dec-01 05:33N 46°09' W 001°13'0 0.0
2016-Dec-01 04:33N 46°09' W 001°13'0 0.0
2016-Dec-01 03:33N 46°09' W 001°13'0 0.0
2016-Dec-01 02:33N 46°09' W 001°13'0 0.0
2016-Dec-01 01:34N 46°09' W 001°13'0 0.0
2016-Dec-01 00:33N 46°09' W 001°13'0 0.0
2016-Nov-30 23:33N 46°09' W 001°13'0 0.0
2016-Nov-30 22:33N 46°09' W 001°13'0 0.0
2016-Nov-30 21:34N 46°09' W 001°13'0 0.0
2016-Nov-30 20:33N 46°09' W 001°13'0 0.0
2016-Nov-30 19:33N 46°09' W 001°13'0 0.0
2016-Nov-30 18:34N 46°09' W 001°13'0 0.0
2016-Nov-30 17:34N 46°09' W 001°13'0 0.0
2016-Nov-30 16:33N 46°09' W 001°13'0 0.0
2016-Nov-30 15:33N 46°09' W 001°13'0 0.0
2016-Nov-30 14:33N 46°09' W 001°13'0 0.0
2016-Nov-30 13:33N 46°09' W 001°13'0 0.0
2016-Nov-30 12:33N 46°09' W 001°13'0 0.0
2016-Nov-30 11:34N 46°09' W 001°13'0 0.0
2016-Nov-30 10:34N 46°09' W 001°13'0 0.0
2016-Nov-30 09:34N 46°09' W 001°13'0 0.0
2016-Nov-30 08:33N 46°09' W 001°13'0 0.0
2016-Nov-30 07:34N 46°09' W 001°13'0 0.0
2016-Nov-30 06:33N 46°09' W 001°13'0 0.0
2016-Nov-30 05:33N 46°09' W 001°13'0 0.0
2016-Nov-30 04:34N 46°09' W 001°13'0 0.0
2016-Nov-30 03:34N 46°09' W 001°13'0 0.0
2016-Nov-30 02:33N 46°09' W 001°13'0 0.0
2016-Nov-30 01:34N 46°09' W 001°13'0 0.0
2016-Nov-30 00:34N 46°09' W 001°13'0 0.0
2016-Nov-29 23:33N 46°09' W 001°13'0 0.0
2016-Nov-29 22:34N 46°09' W 001°13'0 0.0
2016-Nov-29 21:33N 46°09' W 001°13'0 0.0
2016-Nov-29 20:34N 46°09' W 001°13'0 0.0
2016-Nov-29 19:34N 46°09' W 001°13'0 0.0
2016-Nov-29 18:34N 46°09' W 001°13'0 0.0
2016-Nov-29 17:33N 46°09' W 001°13'0 0.0
2016-Nov-29 16:34N 46°09' W 001°13'0 0.0
2016-Nov-29 15:33N 46°09' W 001°13'0 0.0
2016-Nov-29 14:34N 46°09' W 001°13'0 0.0
2016-Nov-29 13:34N 46°09' W 001°13'0 0.0
2016-Nov-29 12:33N 46°09' W 001°13'0 0.0
2016-Nov-29 11:33N 46°09' W 001°13'6 5.6
2016-Nov-29 10:33N 46°04' W 001°17'2 2.2
2016-Nov-29 09:32N 46°04' W 001°20'7 3.2
2016-Nov-29 07:15N 46°00' W 001°11'0 0.0
2016-Nov-29 06:27N 46°00' W 001°11'0 0.0
2016-Nov-29 05:33N 46°00' W 001°11'0 0.0
2016-Nov-29 04:33N 46°00' W 001°11'0 0.0
2016-Nov-29 03:33N 46°00' W 001°11'0 0.0
2016-Nov-29 01:30N 46°00' W 001°11'0 0.0
2016-Nov-29 00:31N 46°00' W 001°11'0 0.0
2016-Nov-28 23:31N 46°00' W 001°11'0 0.1
2016-Nov-28 22:13N 46°00' W 001°11'0 0.0
2016-Nov-28 21:32N 46°00' W 001°11'0 0.0
2016-Nov-28 19:23N 46°00' W 001°11'3 1.6
2016-Nov-28 17:16N 46°02' W 001°15'  
Track history (hours):
 
Tides and Currents Weather Stations Pressure Air Temp Water Temp Dewpoint Dewpoint Depression Visibility Wind Speed Wind Dir Waves Ship Positions

Cotes De La Manche

Last reported at 2016-Dec-07 06:13 UTC. Time now 2016-Dec-11 08:11 UTC.
Position N 49°39' W 001°37'.

Length 25 m; draft 3.7 m.

Type: Tow > 200 m length. MMSI: 227091000.

Date/timePositionNaut miles runAvg speedWind from/ knotsBaromVisibWave heightAir tempDewpointWater temp
2016-Dec-07 06:13N 49°39' W 001°37'0 0.0
2016-Dec-07 05:33N 49°39' W 001°37'0 0.0
2016-Dec-07 04:33N 49°39' W 001°37'0 0.0
2016-Dec-07 03:33N 49°39' W 001°37'0 0.0
2016-Dec-07 02:33N 49°39' W 001°37'0 0.0
2016-Dec-07 01:33N 49°39' W 001°37'0 0.0
2016-Dec-07 00:33N 49°39' W 001°37'0 0.0
2016-Dec-06 23:33N 49°39' W 001°37'0 0.0
2016-Dec-06 22:33N 49°39' W 001°37'0 0.0
2016-Dec-06 21:33N 49°39' W 001°37'0 0.0
2016-Dec-06 20:33N 49°39' W 001°37'0 0.0
2016-Dec-06 18:33N 49°39' W 001°37'0 0.0
2016-Dec-06 17:33N 49°39' W 001°37'0 0.0
2016-Dec-06 16:33N 49°39' W 001°37'6 6.5
2016-Dec-06 15:34N 49°44' W 001°42'4 4.3
2016-Dec-06 14:33N 49°44' W 001°36'5 5.1
2016-Dec-06 13:34N 49°39' W 001°37'0 0.0
2016-Dec-06 12:33N 49°39' W 001°37'8 8.5
2016-Dec-06 11:33N 49°44' W 001°48'3 0.9
2016-Dec-06 08:33N 49°45' W 001°52'9 9.0
2016-Dec-06 07:33N 49°41' W 001°39'2 2.3
2016-Dec-06 06:33N 49°39' W 001°37'0 0.0
2016-Dec-06 05:33N 49°39' W 001°37'0 0.0
2016-Dec-06 04:33N 49°39' W 001°37'0 0.0
2016-Dec-06 03:33N 49°39' W 001°37'0 0.0
2016-Dec-06 02:33N 49°39' W 001°37'0 0.0
2016-Dec-06 01:34N 49°39' W 001°37'0 0.0
2016-Dec-06 00:33N 49°39' W 001°37'0 0.0
2016-Dec-05 23:33N 49°39' W 001°37'0 0.0
2016-Dec-05 22:33N 49°39' W 001°37'0 0.0
2016-Dec-05 21:33N 49°39' W 001°37'0 0.0
2016-Dec-05 20:33N 49°39' W 001°37'0 0.0
2016-Dec-05 19:33N 49°39' W 001°37'0 0.0
2016-Dec-05 18:34N 49°39' W 001°37'0 0.0
2016-Dec-05 17:33N 49°39' W 001°37'1 1.4
2016-Dec-05 16:33N 49°40' W 001°37'1 0.7
2016-Dec-05 15:33N 49°40' W 001°36'0 0.2
2016-Dec-05 14:33N 49°40' W 001°37'0 0.0
2016-Dec-05 13:33N 49°40' W 001°37'0 0.4
2016-Dec-05 12:33N 49°40' W 001°37'0 0.0
2016-Dec-05 11:33N 49°40' W 001°37'0 0.0
2016-Dec-05 10:33N 49°40' W 001°37'0 0.0
2016-Dec-05 09:33N 49°40' W 001°37'0 0.0
2016-Dec-05 08:33N 49°40' W 001°37'1 1.3
2016-Dec-05 07:33N 49°39' W 001°37'0 0.0
2016-Dec-05 06:33N 49°39' W 001°37'0 0.0
2016-Dec-05 05:34N 49°39' W 001°37'0 0.0
2016-Dec-05 04:33N 49°39' W 001°37'0 0.0
2016-Dec-05 03:33N 49°39' W 001°37'0 0.0
2016-Dec-05 02:33N 49°39' W 001°37'0 0.0
2016-Dec-05 01:33N 49°39' W 001°37'0 0.0
2016-Dec-05 00:33N 49°39' W 001°37'0 0.0
2016-Dec-04 23:33N 49°39' W 001°37'0 0.0
2016-Dec-04 22:33N 49°39' W 001°37'0 0.0
2016-Dec-04 21:33N 49°39' W 001°37'0 0.0
2016-Dec-04 20:33N 49°39' W 001°37'0 0.0
2016-Dec-04 19:33N 49°39' W 001°37'0 0.0
2016-Dec-04 18:33N 49°39' W 001°37'0 0.0
2016-Dec-04 17:33N 49°39' W 001°37'1 1.3
2016-Dec-04 16:33N 49°40' W 001°36'2 1.7
2016-Dec-04 15:33N 49°40' W 001°38'1 0.8
2016-Dec-04 14:33N 49°40' W 001°37'1 0.5
2016-Dec-04 13:33N 49°40' W 001°36'0 0.1
2016-Dec-04 12:33N 49°40' W 001°36'0 0.0
2016-Dec-04 11:33N 49°40' W 001°36'0 0.0
2016-Dec-04 10:34N 49°40' W 001°36'1 1.2
2016-Dec-04 09:33N 49°39' W 001°37'1 0.9
2016-Dec-04 08:33N 49°38' W 001°37'0 0.0
2016-Dec-04 07:33N 49°38' W 001°37'0 0.0
2016-Dec-04 06:33N 49°38' W 001°37'0 0.0
2016-Dec-04 05:33N 49°38' W 001°37'0 0.0
2016-Dec-04 04:33N 49°38' W 001°37'0 0.0
2016-Dec-04 03:33N 49°38' W 001°37'0 0.0
2016-Dec-04 02:33N 49°38' W 001°37'0 0.0
2016-Dec-04 01:33N 49°38' W 001°37'0 0.0
2016-Dec-04 00:33N 49°38' W 001°37'0 0.0
2016-Dec-03 23:33N 49°38' W 001°37'0 0.0
2016-Dec-03 22:33N 49°38' W 001°37'0 0.0
2016-Dec-03 21:33N 49°38' W 001°37'0 0.0
2016-Dec-03 20:33N 49°38' W 001°37'0 0.0
2016-Dec-03 19:33N 49°38' W 001°37'0 0.0
2016-Dec-03 18:33N 49°38' W 001°37'0 0.0
2016-Dec-03 17:33N 49°38' W 001°37'0 0.0
2016-Dec-03 16:33N 49°38' W 001°37'0 0.0
2016-Dec-03 15:33N 49°38' W 001°37'0 0.0
2016-Dec-03 14:33N 49°38' W 001°37'0 0.0
2016-Dec-03 13:33N 49°38' W 001°37'0 0.0
2016-Dec-03 12:33N 49°38' W 001°37'0 0.0
2016-Dec-03 11:33N 49°38' W 001°37'0 0.0
2016-Dec-03 10:33N 49°38' W 001°37'0 0.0
2016-Dec-03 09:33N 49°38' W 001°37'1 0.7
2016-Dec-03 08:34N 49°39' W 001°37'0 0.1
2016-Dec-03 07:33N 49°39' W 001°37'0 0.0
2016-Dec-03 06:33N 49°39' W 001°37'7 7.5
2016-Dec-03 05:33N 49°43' W 001°46'127 7.8
2016-Dec-02 13:20N 48°41' W 004°35'7 9.4
2016-Dec-02 12:34N 48°38' W 004°45'9 9.5
2016-Dec-02 11:34N 48°29' W 004°50'9 9.4
2016-Dec-02 10:34N 48°20' W 004°48'10 9.5
2016-Dec-02 09:34N 48°10' W 004°45'9 8.6
2016-Dec-02 08:34N 48°02' W 004°46'19 9.4
2016-Dec-02 06:34N 47°48' W 004°27'11 9.5
2016-Dec-02 05:26N 47°41' W 004°14'910.2
2016-Dec-02 04:33N 47°38' W 004°02'1010.2
2016-Dec-02 03:33N 47°34' W 003°48'1010.1
2016-Dec-02 02:33N 47°31' W 003°34'1010.1
2016-Dec-02 01:34N 47°27' W 003°20'1010.0
2016-Dec-02 00:34N 47°23' W 003°07'1110.6
2016-Dec-01 23:33N 47°15' W 002°56'1110.6
2016-Dec-01 22:33N 47°07' W 002°46'1010.3
2016-Dec-01 21:33N 46°59' W 002°36'1010.3
2016-Dec-01 20:34N 46°51' W 002°26'1010.5
2016-Dec-01 19:33N 46°44' W 002°15'1010.2
2016-Dec-01 18:33N 46°36' W 002°05'1010.2
2016-Dec-01 17:33N 46°28' W 001°56'1010.1
2016-Dec-01 16:33N 46°21' W 001°47'20 9.5
2016-Dec-01 14:26N 46°08' W 001°24'7 7.8
2016-Dec-01 13:34N 46°09' W 001°15'1 0.9
2016-Dec-01 12:34N 46°09' W 001°13'0 0.0
2016-Dec-01 11:34N 46°09' W 001°13'0 0.0
2016-Dec-01 10:34N 46°09' W 001°13'0 0.0
2016-Dec-01 09:33N 46°09' W 001°13'0 0.0
2016-Dec-01 08:32N 46°09' W 001°13'0 0.0
2016-Dec-01 07:34N 46°09' W 001°13'0 0.0
2016-Dec-01 06:34N 46°09' W 001°13'0 0.0
2016-Dec-01 05:33N 46°09' W 001°13'0 0.0
2016-Dec-01 04:33N 46°09' W 001°13'0 0.0
2016-Dec-01 03:33N 46°09' W 001°13'0 0.0
2016-Dec-01 02:33N 46°09' W 001°13'0 0.0
2016-Dec-01 01:34N 46°09' W 001°13'0 0.0
2016-Dec-01 00:33N 46°09' W 001°13'0 0.0
2016-Nov-30 23:33N 46°09' W 001°13'0 0.0
2016-Nov-30 22:33N 46°09' W 001°13'0 0.0
2016-Nov-30 21:34N 46°09' W 001°13'0 0.0
2016-Nov-30 20:33N 46°09' W 001°13'0 0.0
2016-Nov-30 19:33N 46°09' W 001°13'0 0.0
2016-Nov-30 18:34N 46°09' W 001°13'0 0.0
2016-Nov-30 17:34N 46°09' W 001°13'0 0.0
2016-Nov-30 16:33N 46°09' W 001°13'0 0.0
2016-Nov-30 15:33N 46°09' W 001°13'0 0.0
2016-Nov-30 14:33N 46°09' W 001°13'0 0.0
2016-Nov-30 13:33N 46°09' W 001°13'0 0.0
2016-Nov-30 12:33N 46°09' W 001°13'0 0.0
2016-Nov-30 11:34N 46°09' W 001°13'0 0.0
2016-Nov-30 10:34N 46°09' W 001°13'0 0.0
2016-Nov-30 09:34N 46°09' W 001°13'0 0.0
2016-Nov-30 08:33N 46°09' W 001°13'0 0.0
2016-Nov-30 07:34N 46°09' W 001°13'0 0.0
2016-Nov-30 06:33N 46°09' W 001°13'0 0.0
2016-Nov-30 05:33N 46°09' W 001°13'0 0.0
2016-Nov-30 04:34N 46°09' W 001°13'0 0.0
2016-Nov-30 03:34N 46°09' W 001°13'0 0.0
2016-Nov-30 02:33N 46°09' W 001°13'0 0.0
2016-Nov-30 01:34N 46°09' W 001°13'0 0.0
2016-Nov-30 00:34N 46°09' W 001°13'0 0.0
2016-Nov-29 23:33N 46°09' W 001°13'0 0.0
2016-Nov-29 22:34N 46°09' W 001°13'0 0.0
2016-Nov-29 21:33N 46°09' W 001°13'0 0.0
2016-Nov-29 20:34N 46°09' W 001°13'0 0.0
2016-Nov-29 19:34N 46°09' W 001°13'0 0.0
2016-Nov-29 18:34N 46°09' W 001°13'0 0.0
2016-Nov-29 17:33N 46°09' W 001°13'0 0.0
2016-Nov-29 16:34N 46°09' W 001°13'0 0.0
2016-Nov-29 15:33N 46°09' W 001°13'0 0.0
2016-Nov-29 14:34N 46°09' W 001°13'0 0.0
2016-Nov-29 13:34N 46°09' W 001°13'0 0.0
2016-Nov-29 12:33N 46°09' W 001°13'0 0.0
2016-Nov-29 11:33N 46°09' W 001°13'6 5.6
2016-Nov-29 10:33N 46°04' W 001°17'2 2.2
2016-Nov-29 09:32N 46°04' W 001°20'7 3.2
2016-Nov-29 07:15N 46°00' W 001°11'0 0.0
2016-Nov-29 06:27N 46°00' W 001°11'0 0.0
2016-Nov-29 05:33N 46°00' W 001°11'0 0.0
2016-Nov-29 04:33N 46°00' W 001°11'0 0.0
2016-Nov-29 03:33N 46°00' W 001°11'0 0.0
2016-Nov-29 01:30N 46°00' W 001°11'0 0.0
2016-Nov-29 00:31N 46°00' W 001°11'0 0.0
2016-Nov-28 23:31N 46°00' W 001°11'0 0.1
2016-Nov-28 22:13N 46°00' W 001°11'0 0.0
2016-Nov-28 21:32N 46°00' W 001°11'0 0.0
2016-Nov-28 19:23N 46°00' W 001°11'3 1.6
2016-Nov-28 17:16N 46°02' W 001°15'  

Dump ship's entire track history